createdAt,value
2019-02-15T00:00:18.048Z,7.25
2019-02-15T00:01:28.068Z,7.32
2019-02-15T00:02:37.996Z,7.33
2019-02-15T00:03:47.916Z,7.19
2019-02-15T00:04:57.840Z,7.21
2019-02-15T00:06:07.965Z,7.14
2019-02-15T00:07:18.033Z,7.18
2019-02-15T00:08:27.956Z,7.21
2019-02-15T00:09:37.973Z,7.23
2019-02-15T00:10:47.899Z,7.21
2019-02-15T00:11:57.825Z,7.28
2019-02-15T00:13:16.111Z,7.18
2019-02-15T00:14:26.038Z,7.19
2019-02-15T00:15:35.959Z,7.18
2019-02-15T00:16:45.881Z,7.18
2019-02-15T00:17:55.807Z,7.19
2019-02-15T00:19:05.829Z,7.22
2019-02-15T00:20:15.506Z,7.14
2019-02-15T00:21:25.434Z,7.07
2019-02-15T00:22:35.361Z,7
2019-02-15T00:23:45.298Z,7.07
2019-02-15T00:24:55.291Z,7.04
2019-02-15T00:26:05.211Z,7.07
2019-02-15T00:27:15.150Z,7.03
2019-02-15T00:28:25.073Z,7.03
2019-02-15T00:29:34.997Z,7.08
2019-02-15T00:30:44.917Z,7.07
2019-02-15T00:31:54.836Z,7.03
2019-02-15T00:33:04.768Z,7.05
2019-02-15T00:34:14.686Z,7.01
2019-02-15T00:35:24.661Z,7.1
2019-02-15T00:36:34.588Z,7.1
2019-02-15T00:37:44.518Z,7.14
2019-02-15T00:38:54.488Z,7.05
2019-02-15T00:40:04.411Z,7.1
2019-02-15T00:41:14.330Z,7.01
2019-02-15T00:42:24.349Z,7.07
2019-02-15T00:43:34.266Z,7.11
2019-02-15T00:44:44.189Z,7.04
2019-02-15T00:45:54.119Z,7.05
2019-02-15T00:47:04.260Z,7.15
2019-02-15T00:48:14.280Z,7.13
2019-02-15T00:49:24.264Z,7.19
2019-02-15T00:50:34.187Z,7.14
2019-02-15T00:51:44.108Z,7.28
2019-02-15T00:52:54.039Z,7.23
2019-02-15T00:54:04.111Z,7.26
2019-02-15T00:55:14.033Z,7.26
2019-02-15T00:56:23.956Z,7.14
2019-02-15T00:57:33.893Z,7.21
2019-02-15T00:58:43.812Z,7.26
2019-02-15T00:59:53.834Z,7.22
2019-02-15T01:01:03.772Z,7.26
2019-02-15T01:02:13.700Z,7.29
2019-02-15T01:03:23.629Z,7.29
2019-02-15T01:04:33.308Z,7.23
2019-02-15T01:05:43.233Z,7.25
2019-02-15T01:06:53.164Z,7.23
2019-02-15T01:08:03.086Z,7.29
2019-02-15T01:09:13.004Z,7.32
2019-02-15T01:10:22.926Z,7.32
2019-02-15T01:11:32.848Z,7.32
2019-02-15T01:12:42.771Z,7.29
2019-02-15T01:13:52.695Z,7.28
2019-02-15T01:15:02.692Z,7.37
2019-02-15T01:16:12.367Z,7.44
2019-02-15T01:17:22.341Z,7.43
2019-02-15T01:18:32.290Z,7.47
2019-02-15T01:19:42.208Z,7.47
2019-02-15T01:20:52.138Z,7.55
2019-02-15T01:22:02.061Z,7.51
2019-02-15T01:23:12.085Z,7.53
2019-02-15T01:24:22.010Z,7.4
2019-02-15T01:25:31.935Z,7.39
2019-02-15T01:26:41.857Z,7.5
2019-02-15T01:27:51.582Z,7.46
2019-02-15T01:29:01.603Z,7.44
2019-02-15T01:30:11.540Z,7.39
2019-02-15T01:31:21.464Z,7.4
2019-02-15T01:32:31.393Z,7.39
2019-02-15T01:33:41.317Z,7.26
2019-02-15T01:34:51.348Z,7.23
2019-02-15T01:36:01.268Z,7.29
2019-02-15T01:37:11.189Z,7.26
2019-02-15T01:38:21.119Z,7.31
2019-02-15T01:39:31.042Z,7.44
2019-02-15T01:40:41.017Z,7.4
2019-02-15T01:41:50.942Z,7.37
2019-02-15T01:43:00.873Z,7.4
2019-02-15T01:44:10.800Z,7.4
2019-02-15T01:45:20.738Z,7.41
2019-02-15T01:46:30.764Z,7.36
2019-02-15T01:47:42.635Z,7.39
2019-02-15T01:48:52.562Z,7.39
2019-02-15T01:50:02.502Z,7.4
2019-02-15T01:51:12.429Z,7.41
2019-02-15T01:52:22.389Z,7.39
2019-02-15T01:53:32.307Z,7.37
2019-02-15T01:54:42.271Z,7.4
2019-02-15T01:55:51.946Z,7.39
2019-02-15T01:57:01.885Z,7.4
2019-02-15T01:58:11.850Z,7.39
2019-02-15T01:59:21.789Z,7.32
2019-02-15T02:00:31.726Z,7.33
2019-02-15T02:01:41.753Z,7.39
2019-02-15T02:02:51.686Z,7.39
2019-02-15T02:04:01.623Z,7.37
2019-02-15T02:05:11.587Z,7.39
2019-02-15T02:06:21.537Z,7.37
2019-02-15T02:07:31.456Z,7.37
2019-02-15T02:08:41.378Z,7.4
2019-02-15T02:09:51.410Z,7.4
2019-02-15T02:11:01.341Z,7.4
2019-02-15T02:12:11.284Z,7.39
2019-02-15T02:13:21.204Z,7.25
2019-02-15T02:14:31.143Z,7.22
2019-02-15T02:15:41.164Z,7.32
2019-02-15T02:16:51.088Z,7.29
2019-02-15T02:18:01.006Z,7.36
2019-02-15T02:19:10.928Z,7.41
2019-02-15T02:20:20.885Z,7.43
2019-02-15T02:21:30.914Z,7.39
2019-02-15T02:22:40.841Z,7.41
2019-02-15T02:23:50.766Z,7.48
2019-02-15T02:25:00.702Z,7.59
2019-02-15T02:26:10.656Z,7.46
2019-02-15T02:27:20.586Z,7.69
2019-02-15T02:28:30.340Z,7.77
2019-02-15T02:29:40.270Z,7.85
2019-02-15T02:30:50.191Z,7.85
2019-02-15T02:32:00.123Z,7.78
2019-02-15T02:33:10.189Z,7.75
2019-02-15T02:34:20.155Z,7.8
2019-02-15T02:35:30.089Z,7.87
2019-02-15T02:36:40.015Z,8.01
2019-02-15T02:37:49.955Z,8.02
2019-02-15T02:38:59.998Z,8.05
2019-02-15T02:40:09.938Z,8.02
2019-02-15T02:41:19.870Z,8.01
2019-02-15T02:42:29.822Z,8.01
2019-02-15T02:43:39.751Z,7.91
2019-02-15T02:44:49.701Z,7.93
2019-02-15T02:45:59.633Z,8.01
2019-02-15T02:47:09.559Z,7.96
2019-02-15T02:48:19.484Z,7.96
2019-02-15T02:49:29.468Z,7.96
2019-02-15T02:50:39.512Z,7.8
2019-02-15T02:51:49.454Z,7.74
2019-02-15T02:52:59.393Z,7.84
2019-02-15T02:54:09.335Z,7.84
2019-02-15T02:55:19.296Z,7.83
2019-02-15T02:56:29.236Z,7.69
2019-02-15T02:57:39.173Z,7.7
2019-02-15T02:58:49.096Z,7.59
2019-02-15T02:59:59.017Z,7.62
2019-02-15T03:01:08.717Z,7.64
2019-02-15T03:02:18.658Z,7.64
2019-02-15T03:03:28.646Z,7.51
2019-02-15T03:04:38.665Z,7.51
2019-02-15T03:05:48.594Z,7.46
2019-02-15T03:06:58.530Z,7.51
2019-02-15T03:08:08.504Z,7.51
2019-02-15T03:09:18.427Z,7.56
2019-02-15T03:10:28.464Z,7.67
2019-02-15T03:11:38.432Z,7.64
2019-02-15T03:12:48.392Z,7.67
2019-02-15T03:13:58.372Z,7.59
2019-02-15T03:15:19.125Z,7.67
2019-02-15T03:16:29.064Z,7.72
2019-02-15T03:17:39.006Z,7.69
2019-02-15T03:18:48.955Z,7.7
2019-02-15T03:19:58.929Z,7.75
2019-02-15T03:21:08.945Z,7.72
2019-02-15T03:22:18.898Z,7.81
2019-02-15T03:23:28.852Z,7.85
2019-02-15T03:24:38.780Z,7.75
2019-02-15T03:25:48.762Z,7.77
2019-02-15T03:26:58.706Z,7.81
2019-02-15T03:28:08.661Z,7.84
2019-02-15T03:29:18.608Z,7.93
2019-02-15T03:30:28.572Z,7.88
2019-02-15T03:31:38.700Z,7.91
2019-02-15T03:32:48.704Z,8.03
2019-02-15T03:33:58.450Z,8.01
2019-02-15T03:35:08.571Z,7.98
2019-02-15T03:36:18.501Z,7.88
2019-02-15T03:37:28.329Z,7.9
2019-02-15T03:38:38.278Z,8.03
2019-02-15T03:39:48.237Z,7.96
2019-02-15T03:40:58.180Z,8.17
2019-02-15T03:42:08.132Z,8.03
2019-02-15T03:43:17.910Z,8.11
2019-02-15T03:44:27.838Z,8.17
2019-02-15T03:45:37.800Z,8.18
2019-02-15T03:46:47.753Z,8.31
2019-02-15T03:47:57.678Z,8.32
2019-02-15T03:49:07.614Z,8.36
2019-02-15T03:50:17.552Z,8.31
2019-02-15T03:51:27.495Z,8.36
2019-02-15T03:52:37.508Z,8.26
2019-02-15T03:53:47.435Z,8.2
2019-02-15T03:54:57.466Z,8.18
2019-02-15T03:56:07.441Z,8.24
2019-02-15T03:57:17.381Z,8.28
2019-02-15T03:58:27.368Z,8.31
2019-02-15T03:59:37.345Z,8.23
2019-02-15T04:00:47.413Z,8.24
2019-02-15T04:01:57.350Z,8.32
2019-02-15T04:03:07.291Z,8.26
2019-02-15T04:04:17.267Z,8.21
2019-02-15T04:05:27.200Z,8.35
2019-02-15T04:06:37.278Z,8.27
2019-02-15T04:07:47.225Z,8.27
2019-02-15T04:08:56.909Z,8.31
2019-02-15T04:10:06.835Z,8.23
2019-02-15T04:11:16.769Z,8.24
2019-02-15T04:12:26.931Z,8.24
2019-02-15T04:13:37.621Z,8.13
2019-02-15T04:14:47.555Z,8.14
2019-02-15T04:15:57.499Z,8.06
2019-02-15T04:17:07.442Z,8.02
2019-02-15T04:18:17.173Z,8.11
2019-02-15T04:19:27.109Z,8.17
2019-02-15T04:20:37.037Z,8.06
2019-02-15T04:21:46.975Z,7.95
2019-02-15T04:22:56.916Z,8.03
2019-02-15T04:24:06.866Z,8.06
2019-02-15T04:25:18.475Z,8.13
2019-02-15T04:26:28.410Z,8.17
2019-02-15T04:27:38.369Z,8.16
2019-02-15T04:28:48.380Z,8.11
2019-02-15T04:29:58.325Z,8.09
2019-02-15T04:31:08.295Z,8.2
2019-02-15T04:32:18.245Z,8.2
2019-02-15T04:33:28.176Z,8.2
2019-02-15T04:34:38.120Z,8.16
2019-02-15T04:35:48.067Z,8.09
2019-02-15T04:36:57.771Z,8.02
2019-02-15T04:38:07.702Z,8.01
2019-02-15T04:39:17.661Z,7.93
2019-02-15T04:40:27.585Z,7.91
2019-02-15T04:41:37.592Z,7.93
2019-02-15T04:42:47.549Z,7.9
2019-02-15T04:43:57.484Z,7.8
2019-02-15T04:45:07.429Z,7.75
2019-02-15T04:46:17.377Z,7.78
2019-02-15T04:47:27.317Z,7.7
2019-02-15T04:48:37.260Z,7.61
2019-02-15T04:49:47.215Z,7.66
2019-02-15T04:50:57.155Z,7.66
2019-02-15T04:52:07.124Z,7.67
2019-02-15T04:53:17.047Z,7.67
2019-02-15T04:54:26.979Z,7.69
2019-02-15T04:55:36.916Z,7.72
2019-02-15T04:56:46.865Z,7.77
2019-02-15T04:57:56.799Z,7.93
2019-02-15T04:59:06.809Z,7.98
2019-02-15T05:00:16.734Z,8.11
2019-02-15T05:01:26.711Z,8.11
2019-02-15T05:02:36.659Z,7.96
2019-02-15T05:03:46.583Z,7.88
2019-02-15T05:04:56.613Z,7.77
2019-02-15T05:06:06.559Z,7.95
2019-02-15T05:07:16.496Z,8.02
2019-02-15T05:08:26.423Z,7.91
2019-02-15T05:09:36.355Z,7.9
2019-02-15T05:10:46.408Z,7.96
2019-02-15T05:11:56.343Z,7.99
2019-02-15T05:13:06.289Z,8.05
2019-02-15T05:14:16.227Z,8.13
2019-02-15T05:15:26.153Z,8.34
2019-02-15T05:16:36.076Z,8.38
2019-02-15T05:17:46.031Z,8.36
2019-02-15T05:18:55.992Z,8.35
2019-02-15T05:20:05.925Z,8.26
2019-02-15T05:21:17.714Z,8.24
2019-02-15T05:22:27.766Z,8.38
2019-02-15T05:23:37.480Z,8.36
2019-02-15T05:24:47.417Z,8.36
2019-02-15T05:25:57.385Z,8.39
2019-02-15T05:27:07.332Z,8.35
2019-02-15T05:28:17.373Z,8.38
2019-02-15T05:29:27.382Z,8.35
2019-02-15T05:30:37.332Z,8.28
2019-02-15T05:31:47.034Z,8.24
2019-02-15T05:32:56.974Z,8.32
2019-02-15T05:34:07.023Z,8.32
2019-02-15T05:35:16.999Z,8.2
2019-02-15T05:36:26.937Z,8.08
2019-02-15T05:37:36.874Z,8.02
2019-02-15T05:38:46.812Z,8.01
2019-02-15T05:39:56.840Z,7.93
2019-02-15T05:41:06.787Z,7.87
2019-02-15T05:42:16.713Z,7.91
2019-02-15T05:43:26.646Z,7.78
2019-02-15T05:44:36.616Z,7.91
2019-02-15T05:45:46.667Z,7.95
2019-02-15T05:46:56.594Z,7.93
2019-02-15T05:48:06.526Z,7.8
2019-02-15T05:49:16.454Z,7.8
2019-02-15T05:50:26.379Z,7.85
2019-02-15T05:51:36.401Z,7.77
2019-02-15T05:52:46.085Z,7.81
2019-02-15T05:53:56.032Z,7.84
2019-02-15T05:55:06.002Z,7.83
2019-02-15T05:56:15.937Z,7.81
2019-02-15T05:57:25.959Z,7.75
2019-02-15T05:58:35.898Z,7.69
2019-02-15T05:59:45.843Z,7.7
2019-02-15T06:00:55.769Z,7.62
2019-02-15T06:02:05.734Z,7.53
2019-02-15T06:03:16.335Z,7.56
2019-02-15T06:04:26.265Z,7.58
2019-02-15T06:05:36.193Z,7.47
2019-02-15T06:06:46.119Z,7.43
2019-02-15T06:07:56.056Z,7.44
2019-02-15T06:09:05.977Z,7.36
2019-02-15T06:10:15.919Z,7.25
2019-02-15T06:11:25.866Z,7.4
2019-02-15T06:12:35.797Z,7.53
2019-02-15T06:13:45.723Z,7.53
2019-02-15T06:14:55.658Z,7.47
2019-02-15T06:16:05.916Z,7.48
2019-02-15T06:17:15.853Z,7.55
2019-02-15T06:18:25.787Z,7.55
2019-02-15T06:19:35.760Z,7.55
2019-02-15T06:20:45.685Z,7.56
2019-02-15T06:21:55.694Z,7.55
2019-02-15T06:23:05.640Z,7.58
2019-02-15T06:24:15.573Z,7.64
2019-02-15T06:25:25.576Z,7.62
2019-02-15T06:26:35.618Z,7.67
2019-02-15T06:27:45.557Z,7.58
2019-02-15T06:28:55.690Z,7.5
2019-02-15T06:30:05.622Z,7.58
2019-02-15T06:31:15.560Z,7.48
2019-02-15T06:32:25.537Z,7.41
2019-02-15T06:33:35.212Z,7.41
2019-02-15T06:34:45.187Z,7.5
2019-02-15T06:35:55.133Z,7.43
2019-02-15T06:37:05.077Z,7.39
2019-02-15T06:38:15.009Z,7.41
2019-02-15T06:39:24.945Z,7.4
2019-02-15T06:40:34.913Z,7.51
2019-02-15T06:41:44.843Z,7.47
2019-02-15T06:42:54.786Z,7.37
2019-02-15T06:44:04.755Z,7.43
2019-02-15T06:45:23.947Z,7.43
2019-02-15T06:46:34.154Z,7.37
2019-02-15T06:47:44.087Z,7.36
2019-02-15T06:48:54.039Z,7.26
2019-02-15T06:50:04.107Z,7.26
2019-02-15T06:51:14.057Z,7.14
2019-02-15T06:52:24.015Z,7.21
2019-02-15T06:53:33.947Z,7.26
2019-02-15T06:54:43.901Z,7.23
2019-02-15T06:55:53.925Z,7.14
2019-02-15T06:57:03.851Z,7.18
2019-02-15T06:58:13.771Z,7.18
2019-02-15T06:59:23.695Z,7.04
2019-02-15T07:00:33.627Z,7.07
2019-02-15T07:01:43.610Z,7.03
2019-02-15T07:02:53.314Z,7.01
2019-02-15T07:04:03.239Z,7.03
2019-02-15T07:05:13.164Z,7.07
2019-02-15T07:06:23.089Z,7.08
2019-02-15T07:07:33.010Z,6.95
2019-02-15T07:08:42.929Z,6.96
2019-02-15T07:09:52.869Z,6.9
2019-02-15T07:11:02.884Z,6.87
2019-02-15T07:12:12.806Z,6.95
2019-02-15T07:13:22.841Z,6.96
2019-02-15T07:14:32.779Z,6.95
2019-02-15T07:15:42.705Z,6.97
2019-02-15T07:16:52.629Z,7
2019-02-15T07:18:02.557Z,6.96
2019-02-15T07:19:12.578Z,6.96
2019-02-15T07:20:22.518Z,6.93
2019-02-15T07:21:32.449Z,6.89
2019-02-15T07:22:42.138Z,7
2019-02-15T07:23:52.064Z,6.97
2019-02-15T07:25:02.113Z,7.08
2019-02-15T07:26:12.032Z,6.97
2019-02-15T07:27:21.964Z,7.08
2019-02-15T07:28:31.894Z,7.07
2019-02-15T07:29:41.834Z,7.07
2019-02-15T07:30:51.813Z,7.05
2019-02-15T07:32:01.732Z,7.14
2019-02-15T07:33:11.681Z,7.18
2019-02-15T07:34:21.604Z,7.14
2019-02-15T07:35:31.538Z,7.21
2019-02-15T07:36:41.510Z,7.22
2019-02-15T07:37:53.111Z,7.23
2019-02-15T07:39:03.048Z,7.31
2019-02-15T07:40:12.972Z,7.23
2019-02-15T07:41:22.926Z,7.28
2019-02-15T07:42:32.911Z,7.23
2019-02-15T07:43:42.845Z,7.29
2019-02-15T07:44:52.774Z,7.31
2019-02-15T07:46:02.716Z,7.32
2019-02-15T07:47:12.643Z,7.37
2019-02-15T07:48:22.670Z,7.44
2019-02-15T07:49:32.592Z,7.39
2019-02-15T07:50:42.513Z,7.41
2019-02-15T07:51:52.446Z,7.39
2019-02-15T07:53:02.380Z,7.41
2019-02-15T07:54:14.359Z,7.41
2019-02-15T07:55:24.303Z,7.46
2019-02-15T07:56:34.225Z,7.51
2019-02-15T07:57:44.146Z,7.58
2019-02-15T07:58:53.820Z,7.46
2019-02-15T08:00:05.492Z,7.58
2019-02-15T08:01:15.440Z,7.58
2019-02-15T08:02:25.379Z,7.51
2019-02-15T08:03:35.314Z,7.59
2019-02-15T08:04:45.426Z,7.58
2019-02-15T08:05:55.681Z,7.62
2019-02-15T08:07:05.626Z,7.58
2019-02-15T08:08:15.558Z,7.59
2019-02-15T08:09:25.493Z,7.56
2019-02-15T08:10:35.532Z,7.46
2019-02-15T08:11:47.410Z,7.33
2019-02-15T08:12:57.346Z,7.33
2019-02-15T08:14:14.510Z,7.43
2019-02-15T08:15:25.338Z,7.5
2019-02-15T08:16:43.844Z,7.56
2019-02-15T08:17:53.774Z,7.66
2019-02-15T08:19:03.700Z,7.69
2019-02-15T08:20:13.627Z,7.72
2019-02-15T08:21:23.563Z,7.72
2019-02-15T08:22:33.596Z,7.78
2019-02-15T08:23:43.543Z,7.74
2019-02-15T08:24:53.488Z,7.77
2019-02-15T08:26:03.423Z,7.72
2019-02-15T08:27:13.354Z,7.9
2019-02-15T08:28:23.377Z,7.91
2019-02-15T08:29:33.303Z,7.9
2019-02-15T08:30:43.233Z,7.93
2019-02-15T08:31:53.258Z,7.91
2019-02-15T08:33:03.192Z,7.88
2019-02-15T08:34:13.165Z,7.98
2019-02-15T08:35:23.091Z,7.93
2019-02-15T08:36:32.769Z,7.88
2019-02-15T08:37:42.786Z,7.78
2019-02-15T08:38:52.461Z,7.8
2019-02-15T08:40:02.726Z,7.83
2019-02-15T08:41:12.647Z,7.8
2019-02-15T08:42:22.573Z,7.77
2019-02-15T08:43:34.449Z,7.72
2019-02-15T08:44:44.609Z,7.72
2019-02-15T08:46:03.458Z,7.62
2019-02-15T08:47:13.230Z,7.66
2019-02-15T08:48:23.155Z,7.64
2019-02-15T08:49:33.079Z,7.59
2019-02-15T08:50:43.004Z,7.62
2019-02-15T08:51:53.032Z,7.58
2019-02-15T08:53:02.992Z,7.53
2019-02-15T08:54:12.918Z,7.56
2019-02-15T08:55:22.849Z,7.61
2019-02-15T08:56:32.791Z,7.56
2019-02-15T08:57:42.565Z,7.64
2019-02-15T08:58:52.512Z,7.5
2019-02-15T09:00:02.693Z,7.59
2019-02-15T09:01:12.626Z,7.51
2019-02-15T09:02:22.550Z,7.48
2019-02-15T09:03:32.478Z,7.51
2019-02-15T09:04:42.402Z,7.46
2019-02-15T09:05:52.335Z,7.51
2019-02-15T09:07:02.265Z,7.5
2019-02-15T09:08:12.203Z,7.47
2019-02-15T09:09:22.228Z,7.53
2019-02-15T09:10:32.152Z,7.53
2019-02-15T09:11:42.080Z,7.46
2019-02-15T09:12:52.156Z,7.47
2019-02-15T09:14:02.094Z,7.51
2019-02-15T09:15:12.073Z,7.51
2019-02-15T09:16:22.000Z,7.48
2019-02-15T09:17:32.214Z,7.53
2019-02-15T09:18:42.139Z,7.5
2019-02-15T09:19:52.093Z,7.55
2019-02-15T09:21:02.131Z,7.55
2019-02-15T09:22:12.072Z,7.48
2019-02-15T09:23:21.999Z,7.61
2019-02-15T09:24:31.952Z,7.66
2019-02-15T09:25:41.873Z,7.55
2019-02-15T09:26:51.812Z,7.53
2019-02-15T09:28:01.737Z,7.67
2019-02-15T09:29:11.665Z,7.69
2019-02-15T09:30:21.590Z,7.78
2019-02-15T09:31:31.522Z,7.75
2019-02-15T09:32:41.496Z,7.83
2019-02-15T09:33:51.436Z,7.8
2019-02-15T09:35:01.367Z,7.9
2019-02-15T09:36:11.300Z,7.75
2019-02-15T09:37:21.231Z,7.91
2019-02-15T09:38:31.207Z,7.87
2019-02-15T09:39:42.038Z,7.88
2019-02-15T09:40:51.976Z,7.9
2019-02-15T09:42:01.905Z,7.93
2019-02-15T09:43:11.847Z,7.88
2019-02-15T09:44:21.875Z,7.96
2019-02-15T09:45:32.837Z,8.01
2019-02-15T09:46:42.991Z,7.99
2019-02-15T09:47:52.926Z,7.98
2019-02-15T09:49:02.851Z,8.03
2019-02-15T09:50:14.990Z,8.09
2019-02-15T09:51:24.913Z,8.14
2019-02-15T09:52:34.835Z,8.28
2019-02-15T09:53:44.761Z,8.24
2019-02-15T09:54:54.753Z,8.28
2019-02-15T09:56:04.776Z,8.42
2019-02-15T09:57:14.712Z,8.52
2019-02-15T09:58:24.647Z,8.45
2019-02-15T09:59:34.577Z,8.57
2019-02-15T10:00:44.506Z,8.66
2019-02-15T10:01:54.435Z,8.63
2019-02-15T10:03:04.370Z,8.71
2019-02-15T10:04:14.309Z,8.68
2019-02-15T10:05:24.231Z,8.68
2019-02-15T10:06:34.155Z,8.56
2019-02-15T10:07:44.184Z,8.56
2019-02-15T10:08:54.123Z,8.6
2019-02-15T10:10:04.050Z,8.44
2019-02-15T10:11:14.027Z,8.49
2019-02-15T10:12:23.957Z,8.36
2019-02-15T10:13:33.943Z,8.39
2019-02-15T10:14:43.908Z,8.39
2019-02-15T10:15:53.832Z,8.28
2019-02-15T10:17:03.760Z,8.2
2019-02-15T10:18:13.708Z,8.21
2019-02-15T10:19:27.433Z,8.23
2019-02-15T10:20:37.359Z,8.18
2019-02-15T10:21:47.285Z,8.09
2019-02-15T10:22:57.209Z,8.06
2019-02-15T10:24:07.146Z,8.14
2019-02-15T10:25:17.144Z,8.17
2019-02-15T10:26:27.068Z,8.17
2019-02-15T10:27:37.008Z,8.06
2019-02-15T10:28:46.935Z,8.09
2019-02-15T10:29:56.929Z,8.06
2019-02-15T10:31:07.997Z,8.09
2019-02-15T10:32:17.925Z,8.13
2019-02-15T10:33:27.856Z,8.01
2019-02-15T10:34:37.791Z,7.87
2019-02-15T10:35:47.720Z,8.03
2019-02-15T10:36:57.772Z,8.05
2019-02-15T10:38:07.701Z,8.01
2019-02-15T10:39:17.630Z,8.06
2019-02-15T10:40:27.557Z,8.05
2019-02-15T10:41:37.496Z,8.2
2019-02-15T10:42:47.477Z,8.09
2019-02-15T10:43:57.463Z,8.08
2019-02-15T10:45:07.401Z,8.06
2019-02-15T10:46:17.385Z,8.03
2019-02-15T10:47:30.028Z,8.03
2019-02-15T10:48:40.002Z,8.02
2019-02-15T10:49:49.932Z,8.06
2019-02-15T10:50:59.865Z,8.08
2019-02-15T10:52:09.791Z,8.05
2019-02-15T10:53:19.720Z,8.06
2019-02-15T10:54:29.802Z,8.14
2019-02-15T10:55:40.621Z,8.08
2019-02-15T10:56:50.552Z,8.09
2019-02-15T10:58:00.479Z,8.17
2019-02-15T10:59:11.209Z,8.16
2019-02-15T11:00:21.215Z,8.11
2019-02-15T11:01:31.141Z,8.16
2019-02-15T11:02:41.067Z,8.17
2019-02-15T11:03:51.010Z,8.16
2019-02-15T11:05:00.954Z,8.28
2019-02-15T11:06:10.992Z,8.18
2019-02-15T11:07:20.934Z,8.21
2019-02-15T11:08:30.858Z,8.21
2019-02-15T11:09:40.792Z,8.28
2019-02-15T11:10:50.720Z,8.18
2019-02-15T11:12:00.693Z,8.23
2019-02-15T11:13:10.623Z,8.13
2019-02-15T11:14:20.560Z,8.09
2019-02-15T11:15:30.506Z,8.05
2019-02-15T11:16:49.397Z,8.03
2019-02-15T11:17:59.421Z,7.96
2019-02-15T11:19:09.385Z,7.95
2019-02-15T11:20:19.315Z,7.91
2019-02-15T11:21:29.246Z,7.88
2019-02-15T11:22:39.191Z,7.84
2019-02-15T11:23:48.968Z,7.96
2019-02-15T11:24:58.943Z,7.91
2019-02-15T11:26:09.413Z,7.9
2019-02-15T11:27:19.367Z,7.72
2019-02-15T11:28:29.297Z,7.87
2019-02-15T11:29:39.320Z,7.96
2019-02-15T11:30:49.249Z,7.93
2019-02-15T11:31:59.182Z,7.99
2019-02-15T11:33:09.111Z,7.96
2019-02-15T11:34:19.035Z,8.09
2019-02-15T11:35:29.062Z,8.06
2019-02-15T11:36:38.989Z,8.09
2019-02-15T11:37:48.926Z,8.06
2019-02-15T11:38:58.852Z,8.17
2019-02-15T11:40:08.793Z,8.17
2019-02-15T11:41:18.819Z,8.21
2019-02-15T11:42:28.744Z,8.28
2019-02-15T11:43:38.677Z,8.21
2019-02-15T11:44:48.613Z,8.23
2019-02-15T11:45:58.536Z,8.23
2019-02-15T11:47:08.565Z,8.36
2019-02-15T11:48:18.493Z,8.36
2019-02-15T11:49:28.451Z,8.46
2019-02-15T11:50:38.397Z,8.36
2019-02-15T11:51:48.333Z,8.28
2019-02-15T11:52:58.314Z,8.01
2019-02-15T11:54:08.257Z,7.88
2019-02-15T11:55:18.209Z,7.7
2019-02-15T11:56:28.135Z,7.14
2019-02-15T11:57:38.072Z,7.08
2019-02-15T11:58:48.154Z,6.82
2019-02-15T11:59:58.172Z,6.5
2019-02-15T12:01:08.101Z,6.46
2019-02-15T12:02:18.045Z,6.5
2019-02-15T12:03:27.998Z,6.44
2019-02-15T12:04:37.926Z,6.49
2019-02-15T12:05:48.061Z,6.35
2019-02-15T12:06:58.023Z,6.25
2019-02-15T12:08:07.956Z,6.1
2019-02-15T12:09:17.891Z,6.13
2019-02-15T12:10:27.875Z,5.94
2019-02-15T12:11:37.560Z,5.83
2019-02-15T12:12:47.498Z,5.77
2019-02-15T12:13:57.448Z,5.77
2019-02-15T12:15:07.381Z,5.64
2019-02-15T12:16:17.415Z,5.65
2019-02-15T12:17:27.355Z,5.67
2019-02-15T12:18:37.292Z,5.54
2019-02-15T12:19:47.227Z,5.69
2019-02-15T12:20:57.158Z,5.77
2019-02-15T12:22:07.187Z,5.79
2019-02-15T12:23:17.113Z,5.74
2019-02-15T12:24:27.039Z,5.87
2019-02-15T12:25:36.718Z,5.99
2019-02-15T12:26:46.662Z,6.13
2019-02-15T12:27:56.589Z,6.16
2019-02-15T12:29:06.527Z,6.25
2019-02-15T12:30:16.510Z,6.39
2019-02-15T12:31:26.459Z,6.49
2019-02-15T12:32:36.402Z,6.44
2019-02-15T12:33:46.426Z,6.47
2019-02-15T12:34:56.358Z,6.53
2019-02-15T12:36:06.069Z,6.7
2019-02-15T12:37:16.053Z,6.6
2019-02-15T12:38:25.991Z,6.7
2019-02-15T12:39:36.022Z,6.67
2019-02-15T12:40:45.965Z,6.64
2019-02-15T12:41:55.888Z,6.74
2019-02-15T12:43:05.835Z,6.8
2019-02-15T12:44:15.766Z,6.75
2019-02-15T12:45:25.815Z,6.77
2019-02-15T12:46:35.745Z,6.86
2019-02-15T12:47:45.423Z,6.92
2019-02-15T12:48:55.540Z,7.07
2019-02-15T12:50:05.473Z,7.13
2019-02-15T12:51:15.448Z,7.08
2019-02-15T12:52:25.374Z,7.19
2019-02-15T12:53:35.307Z,7.25
2019-02-15T12:54:45.227Z,7.26
2019-02-15T12:55:55.167Z,7.26
2019-02-15T12:57:05.202Z,7.36
2019-02-15T12:58:15.132Z,7.41
2019-02-15T12:59:25.057Z,7.53
2019-02-15T13:00:35.712Z,7.51
2019-02-15T13:01:45.648Z,7.58
2019-02-15T13:02:55.820Z,7.62
2019-02-15T13:04:05.781Z,7.72
2019-02-15T13:05:15.468Z,7.72
2019-02-15T13:06:33.558Z,7.74
2019-02-15T13:07:43.556Z,7.85
2019-02-15T13:08:53.585Z,7.8
2019-02-15T13:10:03.518Z,7.9
2019-02-15T13:11:13.496Z,7.88
2019-02-15T13:12:23.431Z,8.01
2019-02-15T13:13:33.353Z,7.91
2019-02-15T13:14:43.387Z,7.99
2019-02-15T13:15:53.334Z,7.99
2019-02-15T13:17:03.272Z,8.03
2019-02-15T13:18:13.200Z,7.95
2019-02-15T13:19:23.136Z,7.98
2019-02-15T13:20:33.190Z,7.95
2019-02-15T13:21:43.151Z,7.91
2019-02-15T13:22:53.191Z,7.87
2019-02-15T13:24:02.894Z,7.91
2019-02-15T13:25:12.841Z,7.95
2019-02-15T13:26:23.135Z,7.91
2019-02-15T13:27:33.139Z,7.83
2019-02-15T13:28:43.124Z,7.74
2019-02-15T13:29:53.287Z,7.87
2019-02-15T13:31:03.232Z,7.74
2019-02-15T13:32:13.218Z,7.81
2019-02-15T13:33:23.145Z,7.75
2019-02-15T13:34:33.072Z,7.8
2019-02-15T13:35:42.998Z,7.72
2019-02-15T13:36:53.165Z,7.67
2019-02-15T13:38:03.225Z,7.67
2019-02-15T13:39:14.756Z,7.64
2019-02-15T13:40:24.715Z,7.61
2019-02-15T13:41:34.668Z,7.55
2019-02-15T13:42:44.592Z,7.48
2019-02-15T13:43:54.575Z,7.5
2019-02-15T13:45:05.962Z,7.46
2019-02-15T13:46:15.895Z,7.25
2019-02-15T13:47:34.147Z,7.1
2019-02-15T13:48:44.635Z,6.83
2019-02-15T13:49:54.700Z,6.74
2019-02-15T13:51:04.627Z,6.59
2019-02-15T13:52:14.552Z,6.38
2019-02-15T13:53:24.561Z,6.26
2019-02-15T13:54:34.491Z,6.05
2019-02-15T13:55:46.264Z,5.87
2019-02-15T13:56:56.195Z,5.72
2019-02-15T13:58:06.122Z,5.73
2019-02-15T13:59:16.056Z,5.72
2019-02-15T14:00:25.981Z,5.64
2019-02-15T14:01:35.958Z,5.61
2019-02-15T14:02:45.894Z,5.49
2019-02-15T14:03:55.827Z,5.34
2019-02-15T14:05:05.753Z,5.23
2019-02-15T14:06:17.359Z,5.08
2019-02-15T14:07:27.397Z,5.02
2019-02-15T14:08:37.320Z,5.01
2019-02-15T14:09:47.250Z,5
2019-02-15T14:10:57.170Z,4.98
2019-02-15T14:12:07.826Z,4.98
2019-02-15T14:13:17.849Z,4.98
2019-02-15T14:14:27.860Z,5.01
2019-02-15T14:15:37.819Z,4.98
2019-02-15T14:16:47.737Z,4.92
2019-02-15T14:17:57.671Z,4.95
2019-02-15T14:19:07.700Z,4.98
2019-02-15T14:20:17.387Z,4.83
2019-02-15T14:21:27.362Z,4.75
2019-02-15T14:22:37.319Z,4.58
2019-02-15T14:23:47.353Z,4.5
2019-02-15T14:24:57.328Z,4.4
2019-02-15T14:26:07.255Z,4.52
2019-02-15T14:27:17.176Z,4.5
2019-02-15T14:28:27.104Z,4.49
2019-02-15T14:29:37.029Z,4.43
2019-02-15T14:30:47.054Z,4.42
2019-02-15T14:31:56.991Z,4.56
2019-02-15T14:33:06.915Z,4.49
2019-02-15T14:34:16.842Z,4.58
2019-02-15T14:35:26.769Z,4.67
2019-02-15T14:36:36.797Z,4.78
2019-02-15T14:37:46.482Z,4.76
2019-02-15T14:38:56.416Z,4.79
2019-02-15T14:40:06.342Z,4.86
2019-02-15T14:41:16.284Z,4.95
2019-02-15T14:42:26.021Z,4.97
2019-02-15T14:43:35.945Z,4.82
2019-02-15T14:44:45.638Z,4.67
2019-02-15T14:45:55.567Z,4.57
2019-02-15T14:47:05.490Z,4.57
2019-02-15T14:48:15.520Z,4.5
2019-02-15T14:49:27.674Z,4.48
2019-02-15T14:50:37.598Z,4.6
2019-02-15T14:51:47.521Z,4.6
2019-02-15T14:52:57.459Z,4.52
2019-02-15T14:54:07.427Z,4.61
2019-02-15T14:55:17.936Z,4.48
2019-02-15T14:56:27.884Z,4.46
2019-02-15T14:57:37.831Z,4.43
2019-02-15T14:58:47.778Z,4.5
2019-02-15T14:59:57.767Z,4.52
2019-02-15T15:01:08.067Z,4.53
2019-02-15T15:02:18.003Z,4.49
2019-02-15T15:03:27.940Z,4.49
2019-02-15T15:04:37.621Z,4.57
2019-02-15T15:05:49.580Z,4.5
2019-02-15T15:07:00.368Z,4.56
2019-02-15T15:08:10.293Z,4.58
2019-02-15T15:09:20.218Z,4.67
2019-02-15T15:10:30.138Z,4.7
2019-02-15T15:11:40.167Z,4.76
2019-02-15T15:12:49.837Z,4.71
2019-02-15T15:13:59.788Z,4.76
2019-02-15T15:15:11.577Z,4.86
2019-02-15T15:16:21.612Z,4.92
2019-02-15T15:17:31.584Z,4.89
2019-02-15T15:18:41.507Z,4.98
2019-02-15T15:19:51.443Z,5.05
2019-02-15T15:21:01.411Z,5.04
2019-02-15T15:22:11.347Z,5.02
2019-02-15T15:23:21.385Z,4.98
2019-02-15T15:24:33.232Z,5.01
2019-02-15T15:25:43.208Z,5.01
2019-02-15T15:26:53.146Z,5.02
2019-02-15T15:28:03.080Z,4.97
2019-02-15T15:29:13.049Z,4.92
2019-02-15T15:30:22.986Z,4.95
2019-02-15T15:31:32.923Z,4.87
2019-02-15T15:32:42.849Z,4.95
2019-02-15T15:33:52.854Z,4.84
2019-02-15T15:35:02.882Z,4.79
2019-02-15T15:36:12.814Z,4.79